Time;durP1;ratioP1;P1;durP2;ratioP2;P2;SDS_P1;SDS_P2;PMS_P1;PMS_P2;Temp;Humidity;BMP_temperature;BMP_pressure;BME280_temperature;BME280_humidity;BME280_pressure;Samples;Min_cycle;Max_cycle;Signal;HPM_P1;HPM_P2
2021/11/27 00:01:41;;;;;;;;;;;;;;;;;;5137827;27;20346;-71
2021/11/27 00:04:07;;;;;;;;;;;;;;;;;;5137779;27;20006;-70
2021/11/27 00:06:33;;;;;;;;;;;;;;;;;;5137749;27;19922;-71
2021/11/27 00:08:58;;;;;;;;;;;;;;;;;;5137579;27;19915;-71
2021/11/27 00:11:24;;;;;;;;;;;;;;;;;;5137604;27;19916;-70
2021/11/27 00:13:50;;;;;;;;;;;;;;;;;;5137635;27;20006;-71
2021/11/27 00:16:16;;;;;;;;;;;;;;;;;;5137437;27;19941;-72
2021/11/27 00:18:41;;;;;;;;;;;;;;;;;;5137519;27;20382;-72
2021/11/27 00:21:09;;;;;;;;;;;;;;;;;;5136313;27;19912;-72
2021/11/27 00:23:36;;;;;;;;;;;;;;;;;;5137762;27;19915;-72
2021/11/27 00:26:02;;;;;;;;;;;;;;;;;;5137711;27;19916;-71
2021/11/27 00:28:28;;;;;;;;;;;;;;;;;;5137359;27;19919;-72
2021/11/27 00:30:55;;;;;;;;;;;;;;;;;;5137297;27;19916;-72
2021/11/27 00:33:21;;;;;;;;;;;;;;;;;;5137235;27;19969;-72
2021/11/27 00:35:46;;;;;;;;;;;;;;;;;;5137162;27;19960;-71
2021/11/27 00:38:12;;;;;;;;;;;;;;;;;;5137151;27;20014;-71
2021/11/27 00:40:39;;;;;;;;;;;;;;;;;;5137056;27;19915;-71
2021/11/27 00:43:05;;;;;;;;;;;;;;;;;;5137052;27;19915;-73
2021/11/27 00:45:31;;;;;;;;;;;;;;;;;;5137051;27;19919;-72
2021/11/27 00:47:57;;;;;;;;;;;;;;;;;;5136898;27;19921;-71
2021/11/27 00:50:24;;;;;;;;;;;;;;;;;;5136857;27;19915;-72
2021/11/27 00:52:50;;;;;;;;;;;;;;;;;;5136828;27;20363;-72
2021/11/27 00:55:16;;;;;;;;;;;;;;;;;;5136645;27;20015;-71
2021/11/27 00:57:42;;;;;;;;;;;;;;;;;;5136832;27;19922;-72
2021/11/27 01:00:09;;;;;;;;;;;;;;;;;;5136691;27;19915;-71
2021/11/27 01:02:35;;;;;;;;;;;;;;;;;;5136709;27;19960;-74
2021/11/27 01:05:00;;;;;;;;;;;;;;;;;;5136478;27;19919;-71
2021/11/27 01:07:26;;;;;;;;;;;;;;;;;;5136617;27;19923;-71
2021/11/27 01:09:51;;;;;;;;;;;;;;;;;;5136669;27;20010;-71
2021/11/27 01:12:17;;;;;;;;;;;;;;;;;;5142458;27;19969;-72
2021/11/27 01:14:42;;;;;;;;;;;;;;;;;;5141207;27;20009;-71
2021/11/27 01:17:09;;;;;;;;;;;;;;;;;;5146753;27;19962;-71
2021/11/27 01:19:35;;;;;;;;;;;;;;;;;;5137112;27;20391;-72
2021/11/27 01:22:03;;;;;;;;;;;;;;;;;;5136451;27;19928;-72
2021/11/27 01:24:29;;;;;;;;;;;;;;;;;;5136345;27;19912;-71
2021/11/27 01:26:54;;;;;;;;;;;;;;;;;;5136438;27;20286;-72
2021/11/27 01:29:21;;;;;;;;;;;;;;;;;;5136046;27;19919;-71
2021/11/27 01:31:47;;;;;;;;;;;;;;;;;;5135935;27;19975;-72
2021/11/27 01:34:12;;;;;;;;;;;;;;;;;;5135830;27;19915;-72
2021/11/27 01:36:38;;;;;;;;;;;;;;;;;;5136078;27;19972;-72
2021/11/27 01:39:04;;;;;;;;;;;;;;;;;;5136228;27;19919;-72
2021/11/27 01:41:30;;;;;;;;;;;;;;;;;;5136097;27;19925;-72
2021/11/27 01:43:56;;;;;;;;;;;;;;;;;;5135909;27;19919;-72
2021/11/27 01:46:21;;;;;;;;;;;;;;;;;;5134539;27;19915;-76
2021/11/27 01:48:47;;;;;;;;;;;;;;;;;;5135589;27;19912;-71
2021/11/27 01:51:19;;;;;;;;;;;;;;;;;;5136131;27;19923;-71
2021/11/27 01:53:47;;;;;;;;;;;;;;;;;;5135907;27;20366;-71
2021/11/27 01:56:15;;;;;;;;;;;;;;;;;;5135658;27;19923;-72
2021/11/27 01:58:41;;;;;;;;;;;;;;;;;;5135971;27;19919;-71
2021/11/27 02:01:08;;;;;;;;;;;;;;;;;;5135542;27;19912;-72
2021/11/27 02:03:34;;;;;;;;;;;;;;;;;;5135544;27;19916;-72
2021/11/27 02:06:00;;;;;;;;;;;;;;;;;;5135444;27;20424;-72
2021/11/27 02:08:25;;;;;;;;;;;;;;;;;;5135503;27;19961;-72
2021/11/27 02:10:52;;;;;;;;;;;;;;;;;;5133988;27;19941;-71
2021/11/27 02:13:17;;;;;;;;;;;;;;;;;;5135337;27;19917;-72
2021/11/27 02:15:43;;;;;;;;;;;;;;;;;;5135406;27;20022;-71
2021/11/27 02:18:09;;;;;;;;;;;;;;;;;;5134991;27;19927;-72
2021/11/27 02:20:35;;;;;;;;;;;;;;;;;;5135167;27;20070;-73
2021/11/27 02:23:04;;;;;;;;;;;;;;;;;;5134766;27;20158;-72
2021/11/27 02:25:31;;;;;;;;;;;;;;;;;;5135084;27;20371;-72
2021/11/27 02:27:57;;;;;;;;;;;;;;;;;;5135166;27;19915;-71
2021/11/27 02:30:23;;;;;;;;;;;;;;;;;;5135005;27;20385;-71
2021/11/27 02:32:49;;;;;;;;;;;;;;;;;;5135088;27;20350;-71
2021/11/27 02:35:15;;;;;;;;;;;;;;;;;;5135064;27;19915;-71
2021/11/27 02:37:40;;;;;;;;;;;;;;;;;;5135025;27;19960;-71
2021/11/27 02:40:07;;;;;;;;;;;;;;;;;;5135003;27;19922;-72
2021/11/27 02:42:33;;;;;;;;;;;;;;;;;;5135231;27;19919;-72
2021/11/27 02:44:58;;;;;;;;;;;;;;;;;;5134074;27;19915;-72
2021/11/27 02:47:24;;;;;;;;;;;;;;;;;;5134876;27;19919;-71
2021/11/27 02:49:49;;;;;;;;;;;;;;;;;;5133382;28;19923;-71
2021/11/27 02:52:15;;;;;;;;;;;;;;;;;;5135142;27;20261;-72
2021/11/27 02:54:41;;;;;;;;;;;;;;;;;;5134927;27;20433;-72
2021/11/27 02:57:06;;;;;;;;;;;;;;;;;;5134962;28;19919;-71
2021/11/27 02:59:32;;;;;;;;;;;;;;;;;;5134763;27;20010;-74
2021/11/27 03:01:59;;;;;;;;;;;;;;;;;;5134714;27;20277;-71
2021/11/27 03:04:25;;;;;;;;;;;;;;;;;;5135003;27;19968;-71
2021/11/27 03:06:51;;;;;;;;;;;;;;;;;;5134975;27;19915;-71
2021/11/27 03:09:17;;;;;;;;;;;;;;;;;;5134858;27;20282;-72
2021/11/27 03:11:43;;;;;;;;;;;;;;;;;;5134730;27;19923;-71
2021/11/27 03:14:09;;;;;;;;;;;;;;;;;;5135022;27;20385;-71
2021/11/27 03:16:38;;;;;;;;;;;;;;;;;;5134376;27;19920;-73
2021/11/27 03:19:04;;;;;;;;;;;;;;;;;;5134874;27;19964;-72
2021/11/27 03:21:29;;;;;;;;;;;;;;;;;;5134585;27;20295;-71
2021/11/27 03:23:55;;;;;;;;;;;;;;;;;;5134585;27;19922;-72
2021/11/27 03:26:20;;;;;;;;;;;;;;;;;;5134492;28;19919;-72
2021/11/27 03:28:46;;;;;;;;;;;;;;;;;;5134434;27;19915;-72
2021/11/27 03:31:12;;;;;;;;;;;;;;;;;;5134378;27;19951;-72
2021/11/27 03:33:38;;;;;;;;;;;;;;;;;;5134422;27;19916;-72
2021/11/27 03:36:04;;;;;;;;;;;;;;;;;;5133178;28;19915;-72
2021/11/27 03:38:29;;;;;;;;;;;;;;;;;;5134647;27;20323;-71
2021/11/27 03:40:55;;;;;;;;;;;;;;;;;;5134481;28;19920;-72
2021/11/27 03:43:21;;;;;;;;;;;;;;;;;;5134380;27;20286;-71
2021/11/27 03:45:46;;;;;;;;;;;;;;;;;;5134434;27;19958;-71
2021/11/27 03:48:17;;;;;;;;;;;;;;;;;;5134441;28;19922;-72
2021/11/27 03:50:49;;;;;;;;;;;;;;;;;;5134271;27;19915;-71
2021/11/27 03:53:16;;;;;;;;;;;;;;;;;;5134172;27;19915;-71
2021/11/27 03:55:41;;;;;;;;;;;;;;;;;;5135167;27;19911;-72
2021/11/27 03:58:07;;;;;;;;;;;;;;;;;;5138209;27;19995;-71
2021/11/27 04:00:33;;;;;;;;;;;;;;;;;;5137882;27;19915;-72
2021/11/27 04:02:59;;;;;;;;;;;;;;;;;;5137844;27;19918;-72
2021/11/27 04:05:25;;;;;;;;;;;;;;;;;;5138107;27;19920;-72
2021/11/27 04:07:53;;;;;;;;;;;;;;;;;;5137918;27;19950;-71
2021/11/27 04:10:18;;;;;;;;;;;;;;;;;;5137535;27;19961;-72
2021/11/27 04:12:44;;;;;;;;;;;;;;;;;;5137879;27;19919;-72
2021/11/27 04:15:09;;;;;;;;;;;;;;;;;;5137552;27;20002;-71
2021/11/27 04:17:35;;;;;;;;;;;;;;;;;;5137327;27;19919;-72
2021/11/27 04:20:00;;;;;;;;;;;;;;;;;;5137634;27;19990;-71
2021/11/27 04:22:26;;;;;;;;;;;;;;;;;;5137765;27;19921;-71
2021/11/27 04:24:51;;;;;;;;;;;;;;;;;;5137534;27;19915;-72
2021/11/27 04:27:17;;;;;;;;;;;;;;;;;;5136174;27;19915;-71
2021/11/27 04:29:42;;;;;;;;;;;;;;;;;;5137247;27;20374;-72
2021/11/27 04:32:08;;;;;;;;;;;;;;;;;;5137221;27;19916;-71
2021/11/27 04:34:33;;;;;;;;;;;;;;;;;;5137445;27;19918;-72
2021/11/27 04:36:58;;;;;;;;;;;;;;;;;;5137280;27;19916;-71
2021/11/27 04:39:24;;;;;;;;;;;;;;;;;;5137327;27;19919;-71
2021/11/27 04:41:49;;;;;;;;;;;;;;;;;;5137315;27;19926;-72
2021/11/27 04:44:15;;;;;;;;;;;;;;;;;;5144919;27;19915;-71
2021/11/27 04:46:40;;;;;;;;;;;;;;;;;;5144694;27;19970;-72
2021/11/27 04:49:06;;;;;;;;;;;;;;;;;;5137042;27;20290;-72
2021/11/27 04:51:31;;;;;;;;;;;;;;;;;;5137022;27;20052;-71
2021/11/27 04:53:57;;;;;;;;;;;;;;;;;;5136823;27;20006;-72
2021/11/27 04:56:22;;;;;;;;;;;;;;;;;;5135665;27;19922;-71
2021/11/27 04:58:48;;;;;;;;;;;;;;;;;;5136859;27;19916;-72
2021/11/27 05:01:13;;;;;;;;;;;;;;;;;;5136832;27;19923;-72
2021/11/27 05:03:38;;;;;;;;;;;;;;;;;;5136783;27;20014;-72
2021/11/27 05:06:04;;;;;;;;;;;;;;;;;;5136739;27;19962;-71
2021/11/27 05:08:30;;;;;;;;;;;;;;;;;;5135813;27;19919;-71
2021/11/27 05:10:55;;;;;;;;;;;;;;;;;;5136463;27;19923;-71
2021/11/27 05:13:21;;;;;;;;;;;;;;;;;;5136518;27;19940;-72
2021/11/27 05:15:46;;;;;;;;;;;;;;;;;;5136468;27;19947;-72
2021/11/27 05:18:12;;;;;;;;;;;;;;;;;;5136224;27;19925;-71
2021/11/27 05:20:37;;;;;;;;;;;;;;;;;;5136607;27;20332;-72
2021/11/27 05:23:03;;;;;;;;;;;;;;;;;;5136277;27;19919;-71
2021/11/27 05:25:28;;;;;;;;;;;;;;;;;;5136405;27;19915;-71
2021/11/27 05:27:54;;;;;;;;;;;;;;;;;;5136287;27;20453;-72
2021/11/27 05:30:21;;;;;;;;;;;;;;;;;;5136277;27;19927;-71
2021/11/27 05:35:24;;;;;;;;;;;;;;;;;;5136095;27;19911;-71
2021/11/27 05:37:49;;;;;;;;;;;;;;;;;;5136281;27;20394;-72
2021/11/27 05:40:15;;;;;;;;;;;;;;;;;;5136287;27;20422;-71
2021/11/27 05:42:43;;;;;;;;;;;;;;;;;;5135821;27;19915;-72
2021/11/27 05:45:08;;;;;;;;;;;;;;;;;;5135873;27;19915;-72
2021/11/27 05:47:34;;;;;;;;;;;;;;;;;;5134472;27;19919;-72
2021/11/27 05:49:59;;;;;;;;;;;;;;;;;;5135662;27;20124;-72
2021/11/27 05:52:25;;;;;;;;;;;;;;;;;;5135675;27;19921;-72
2021/11/27 05:54:51;;;;;;;;;;;;;;;;;;5135652;27;20373;-72
2021/11/27 05:57:16;;;;;;;;;;;;;;;;;;5135712;27;19915;-72
2021/11/27 05:59:42;;;;;;;;;;;;;;;;;;5135606;27;20011;-73
2021/11/27 06:02:07;;;;;;;;;;;;;;;;;;5135504;27;19916;-72
2021/11/27 06:04:33;;;;;;;;;;;;;;;;;;5135514;27;19915;-71
2021/11/27 06:06:58;;;;;;;;;;;;;;;;;;5133939;27;19920;-71
2021/11/27 06:09:24;;;;;;;;;;;;;;;;;;5119377;27;19923;-71
2021/11/27 06:11:49;;;;;;;;;;;;;;;;;;5133819;27;19920;-71
2021/11/27 06:14:15;;;;;;;;;;;;;;;;;;5134697;27;20374;-72
2021/11/27 06:16:41;;;;;;;;;;;;;;;;;;5132918;27;19923;-72
2021/11/27 06:19:06;;;;;;;;;;;;;;;;;;5134473;27;20007;-71
2021/11/27 06:21:31;;;;;;;;;;;;;;;;;;5134731;27;19941;-72
2021/11/27 06:23:57;;;;;;;;;;;;;;;;;;5134675;27;19920;-72
2021/11/27 06:26:23;;;;;;;;;;;;;;;;;;5134677;27;20340;-72
2021/11/27 06:28:49;;;;;;;;;;;;;;;;;;5134596;27;20374;-72
2021/11/27 06:31:15;;;;;;;;;;;;;;;;;;5134571;27;19961;-71
2021/11/27 06:33:40;;;;;;;;;;;;;;;;;;5134752;27;19946;-72
2021/11/27 06:36:06;;;;;;;;;;;;;;;;;;5134989;27;19915;-72
2021/11/27 06:38:31;;;;;;;;;;;;;;;;;;5134994;27;19920;-72
2021/11/27 06:40:57;;;;;;;;;;;;;;;;;;5135287;27;19915;-74
2021/11/27 06:43:22;;;;;;;;;;;;;;;;;;5134897;27;20327;-71
2021/11/27 06:45:48;;;;;;;;;;;;;;;;;;5134921;27;20001;-71
2021/11/27 06:48:13;;;;;;;;;;;;;;;;;;5134938;27;19938;-72
2021/11/27 06:50:39;;;;;;;;;;;;;;;;;;5134833;27;20377;-72
2021/11/27 06:53:05;;;;;;;;;;;;;;;;;;5135187;27;19915;-74
2021/11/27 06:55:30;;;;;;;;;;;;;;;;;;5135593;27;19915;-72
2021/11/27 06:57:56;;;;;;;;;;;;;;;;;;5119624;28;20458;-72
2021/11/27 07:00:21;;;;;;;;;;;;;;;;;;5134299;27;19970;-81
2021/11/27 07:02:47;;;;;;;;;;;;;;;;;;5134458;27;19911;-78
2021/11/27 07:05:12;;;;;;;;;;;;;;;;;;5132892;28;19915;-72
2021/11/27 07:07:38;;;;;;;;;;;;;;;;;;5124504;28;20014;-81
2021/11/27 07:10:04;;;;;;;;;;;;;;;;;;5119489;28;20042;-75
2021/11/27 07:12:29;;;;;;;;;;;;;;;;;;5133176;27;20367;-75
2021/11/27 07:14:55;;;;;;;;;;;;;;;;;;5129555;28;20002;-74
2021/11/27 07:17:20;;;;;;;;;;;;;;;;;;5129234;28;19942;-73
2021/11/27 07:19:46;;;;;;;;;;;;;;;;;;5121573;28;19987;-73
2021/11/27 07:22:11;;;;;;;;;;;;;;;;;;5129107;28;20014;-72
2021/11/27 07:24:37;;;;;;;;;;;;;;;;;;5126571;27;19919;-74
2021/11/27 07:27:06;;;;;;;;;;;;;;;;;;5127221;28;19920;-89
2021/11/27 07:29:37;;;;;;;;;;;;;;;;;;5124836;27;19919;-75
2021/11/27 07:32:03;;;;;;;;;;;;;;;;;;5135011;27;19919;-81
2021/11/27 07:34:28;;;;;;;;;;;;;;;;;;5138455;27;20389;-73
2021/11/27 07:36:54;;;;;;;;;;;;;;;;;;5129967;27;19919;-72
2021/11/27 07:39:19;;;;;;;;;;;;;;;;;;5122455;27;19919;-80
2021/11/27 07:41:45;;;;;;;;;;;;;;;;;;5124276;27;20294;-72
2021/11/27 07:44:10;;;;;;;;;;;;;;;;;;5126813;27;19923;-73
2021/11/27 07:46:36;;;;;;;;;;;;;;;;;;5122054;27;19912;-72
2021/11/27 07:49:01;;;;;;;;;;;;;;;;;;5124291;27;19919;-72
2021/11/27 07:51:30;;;;;;;;;;;;;;;;;;5121916;27;19916;-82
2021/11/27 07:53:56;;;;;;;;;;;;;;;;;;5118651;27;20035;-87
2021/11/27 07:56:21;;;;;;;;;;;;;;;;;;5120820;27;20421;-86
2021/11/27 07:58:46;;;;;;;;;;;;;;;;;;5143586;27;20472;-82
2021/11/27 08:01:12;;;;;;;;;;;;;;;;;;5131008;27;20290;-72
2021/11/27 08:03:38;;;;;;;;;;;;;;;;;;5126515;27;19919;-72
2021/11/27 08:06:03;;;;;;;;;;;;;;;;;;5132241;27;19926;-82
2021/11/27 08:08:29;;;;;;;;;;;;;;;;;;5148650;27;19915;-72
2021/11/27 08:10:54;;;;;;;;;;;;;;;;;;5139383;27;19969;-74
2021/11/27 08:13:20;;;;;;;;;;;;;;;;;;5138079;27;19926;-73
2021/11/27 08:15:45;;;;;;;;;;;;;;;;;;5138019;27;19916;-73
2021/11/27 08:18:11;;;;;;;;;;;;;;;;;;5137614;27;19920;-79
2021/11/27 08:20:37;;;;;;;;;;;;;;;;;;5137853;27;20294;-72
2021/11/27 08:23:05;;;;;;;;;;;;;;;;;;5137955;27;19911;-73
2021/11/27 08:25:30;;;;;;;;;;;;;;;;;;5137371;27;20291;-72
2021/11/27 08:27:56;;;;;;;;;;;;;;;;;;5137459;27;19916;-72
2021/11/27 08:30:21;;;;;;;;;;;;;;;;;;5137330;27;19919;-72
2021/11/27 08:32:49;;;;;;;;;;;;;;;;;;5137329;27;19923;-73
2021/11/27 08:35:15;;;;;;;;;;;;;;;;;;5137287;27;20366;-73
2021/11/27 08:37:41;;;;;;;;;;;;;;;;;;5137413;27;19923;-78
2021/11/27 08:40:07;;;;;;;;;;;;;;;;;;5136142;27;20267;-74
2021/11/27 08:42:32;;;;;;;;;;;;;;;;;;5136034;27;19918;-79
2021/11/27 08:44:58;;;;;;;;;;;;;;;;;;5137170;27;19915;-73
2021/11/27 08:47:23;;;;;;;;;;;;;;;;;;5135877;27;19915;-71
2021/11/27 08:49:49;;;;;;;;;;;;;;;;;;5136861;27;19915;-71
2021/11/27 08:52:14;;;;;;;;;;;;;;;;;;5135714;27;20278;-71
2021/11/27 08:54:40;;;;;;;;;;;;;;;;;;5135974;27;20472;-71
2021/11/27 08:57:05;;;;;;;;;;;;;;;;;;5136934;27;19915;-71
2021/11/27 08:59:31;;;;;;;;;;;;;;;;;;5136800;27;19965;-71
2021/11/27 09:01:57;;;;;;;;;;;;;;;;;;5136720;27;19968;-72
2021/11/27 09:04:22;;;;;;;;;;;;;;;;;;5136610;27;19967;-71
2021/11/27 09:06:48;;;;;;;;;;;;;;;;;;5135000;27;20370;-71
2021/11/27 09:09:13;;;;;;;;;;;;;;;;;;5136566;27;19916;-75
2021/11/27 09:11:39;;;;;;;;;;;;;;;;;;5136631;27;19916;-72
2021/11/27 09:14:05;;;;;;;;;;;;;;;;;;5136499;27;19915;-71
2021/11/27 09:16:30;;;;;;;;;;;;;;;;;;5136475;27;19930;-74
2021/11/27 09:18:56;;;;;;;;;;;;;;;;;;5136734;27;19915;-72
2021/11/27 09:21:21;;;;;;;;;;;;;;;;;;5136391;27;19947;-71
2021/11/27 09:23:47;;;;;;;;;;;;;;;;;;5136349;27;19915;-72
2021/11/27 09:26:12;;;;;;;;;;;;;;;;;;5136498;27;19925;-72
2021/11/27 09:28:38;;;;;;;;;;;;;;;;;;5136317;27;19916;-70
2021/11/27 09:31:03;;;;;;;;;;;;;;;;;;5136218;27;19968;-71
2021/11/27 09:33:29;;;;;;;;;;;;;;;;;;5136268;27;19923;-81
2021/11/27 09:36:04;;;;;;;;;;;;;;;;;;5136023;27;19916;-71
2021/11/27 09:38:30;;;;;;;;;;;;;;;;;;5136103;27;19915;-70
2021/11/27 09:41:18;;;;;;;;;;;;;;;;;;5135930;27;19975;-70
2021/11/27 09:43:45;;;;;;;;;;;;;;;;;;5136126;27;20328;-72
2021/11/27 09:46:12;;;;;;;;;;;;;;;;;;5135135;27;19961;-71
2021/11/27 09:48:40;;;;;;;;;;;;;;;;;;5135927;27;19916;-71
2021/11/27 09:51:06;;;;;;;;;;;;;;;;;;5136252;27;19972;-70
2021/11/27 09:53:32;;;;;;;;;;;;;;;;;;5135280;27;19923;-73
2021/11/27 09:56:02;;;;;;;;;;;;;;;;;;5135690;27;20324;-71
2021/11/27 09:58:27;;;;;;;;;;;;;;;;;;5136094;27;19915;-72
2021/11/27 10:00:53;;;;;;;;;;;;;;;;;;5136773;27;19996;-71
2021/11/27 10:03:19;;;;;;;;;;;;;;;;;;5137050;27;19916;-74
2021/11/27 10:05:46;;;;;;;;;;;;;;;;;;5136827;27;19915;-72
2021/11/27 10:08:13;;;;;;;;;;;;;;;;;;5135670;27;20355;-73
2021/11/27 10:10:40;;;;;;;;;;;;;;;;;;5137021;27;19951;-77
2021/11/27 10:13:05;;;;;;;;;;;;;;;;;;5136295;27;19915;-72
2021/11/27 10:15:31;;;;;;;;;;;;;;;;;;5135956;27;19944;-72
2021/11/27 10:17:56;;;;;;;;;;;;;;;;;;5136667;27;19971;-71
2021/11/27 10:20:23;;;;;;;;;;;;;;;;;;5136605;27;19922;-72
2021/11/27 10:22:51;;;;;;;;;;;;;;;;;;5134473;27;19915;-71
2021/11/27 10:25:24;;;;;;;;;;;;;;;;;;5135761;27;19911;-72
2021/11/27 10:27:50;;;;;;;;;;;;;;;;;;5135925;27;19916;-76
2021/11/27 10:30:16;;;;;;;;;;;;;;;;;;5135931;27;19923;-72
2021/11/27 10:32:43;;;;;;;;;;;;;;;;;;5135209;27;19915;-72
2021/11/27 10:35:12;;;;;;;;;;;;;;;;;;5136463;27;19947;-73
2021/11/27 10:37:41;;;;;;;;;;;;;;;;;;5136380;27;19911;-72
2021/11/27 10:40:15;;;;;;;;;;;;;;;;;;5130396;27;19942;-71
2021/11/27 10:42:42;;;;;;;;;;;;;;;;;;5130357;27;19912;-71
2021/11/27 10:45:13;;;;;;;;;;;;;;;;;;5132872;27;19926;-72
2021/11/27 10:47:40;;;;;;;;;;;;;;;;;;5126811;27;20264;-71
2021/11/27 10:50:06;;;;;;;;;;;;;;;;;;5132770;27;19950;-75
2021/11/27 10:52:36;;;;;;;;;;;;;;;;;;5134549;27;20549;-72
2021/11/27 10:55:13;;;;;;;;;;;;;;;;;;5132001;28;19973;-72
2021/11/27 10:57:39;;;;;;;;;;;;;;;;;;5131710;28;19922;-72
2021/11/27 11:00:07;;;;;;;;;;;;;;;;;;5129882;27;19920;-73
2021/11/27 11:02:33;;;;;;;;;;;;;;;;;;5123102;28;19927;-74
2021/11/27 11:04:59;;;;;;;;;;;;;;;;;;5132755;27;19915;-73
2021/11/27 11:07:28;;;;;;;;;;;;;;;;;;5139460;27;20374;-81
2021/11/27 11:10:17;;;;;;;;;;;;;;;;;;5139029;27;19923;-72
2021/11/27 11:12:50;;;;;;;;;;;;;;;;;;5135458;27;19915;-73
2021/11/27 11:15:20;;;;;;;;;;;;;;;;;;5137403;27;20256;-73
2021/11/27 11:17:46;;;;;;;;;;;;;;;;;;5129032;27;19927;-72
2021/11/27 11:20:19;;;;;;;;;;;;;;;;;;5134349;27;19923;-71
2021/11/27 11:23:11;;;;;;;;;;;;;;;;;;5138695;27;20098;-71
2021/11/27 11:25:51;;;;;;;;;;;;;;;;;;5118977;27;20002;-71
2021/11/27 11:28:16;;;;;;;;;;;;;;;;;;5140956;27;19916;-71
2021/11/27 11:30:44;;;;;;;;;;;;;;;;;;5144370;27;19922;-71
2021/11/27 11:33:11;;;;;;;;;;;;;;;;;;5136850;27;19927;-72
2021/11/27 11:35:37;;;;;;;;;;;;;;;;;;5134548;27;19916;-71
2021/11/27 11:38:05;;;;;;;;;;;;;;;;;;5137154;27;20005;-72
2021/11/27 11:40:31;;;;;;;;;;;;;;;;;;5136969;27;19969;-71
2021/11/27 11:42:57;;;;;;;;;;;;;;;;;;5133989;27;20363;-71
2021/11/27 11:45:23;;;;;;;;;;;;;;;;;;5138334;27;19915;-72
2021/11/27 11:47:48;;;;;;;;;;;;;;;;;;5138102;27;19922;-72
2021/11/27 11:50:18;;;;;;;;;;;;;;;;;;5138145;27;20002;-71
2021/11/27 11:52:56;;;;;;;;;;;;;;;;;;5137676;27;19960;-72
2021/11/27 11:55:22;;;;;;;;;;;;;;;;;;5135114;27;19942;-71
2021/11/27 11:57:49;;;;;;;;;;;;;;;;;;5136764;27;19923;-72
2021/11/27 12:00:15;;;;;;;;;;;;;;;;;;5136694;27;19959;-72
2021/11/27 12:02:44;;;;;;;;;;;;;;;;;;5132654;27;19931;-74
2021/11/27 12:05:15;;;;;;;;;;;;;;;;;;5118103;27;20376;-77
2021/11/27 12:10:18;;;;;;;;;;;;;;;;;;5125193;27;19963;-73
2021/11/27 12:12:44;;;;;;;;;;;;;;;;;;5128820;27;19920;-76
2021/11/27 12:15:10;;;;;;;;;;;;;;;;;;5126148;27;20079;-73
2021/11/27 12:17:55;;;;;;;;;;;;;;;;;;5116652;28;19920;-73
2021/11/27 12:20:21;;;;;;;;;;;;;;;;;;5117371;28;19920;-73
2021/11/27 12:22:46;;;;;;;;;;;;;;;;;;5117161;28;20302;-73
2021/11/27 12:25:14;;;;;;;;;;;;;;;;;;5116955;28;19968;-73
2021/11/27 12:27:58;;;;;;;;;;;;;;;;;;5116919;28;19916;-73
2021/11/27 12:30:23;;;;;;;;;;;;;;;;;;5116643;27;20393;-74
2021/11/27 12:32:49;;;;;;;;;;;;;;;;;;5125318;27;19927;-73
2021/11/27 12:35:27;;;;;;;;;;;;;;;;;;5129896;27;19916;-73
2021/11/27 12:37:53;;;;;;;;;;;;;;;;;;5116871;27;19915;-72
2021/11/27 12:40:37;;;;;;;;;;;;;;;;;;5120300;27;19915;-74
2021/11/27 12:43:13;;;;;;;;;;;;;;;;;;5120824;27;19941;-73
2021/11/27 12:45:40;;;;;;;;;;;;;;;;;;5123308;27;19915;-73
2021/11/27 12:48:29;;;;;;;;;;;;;;;;;;5122398;27;19927;-74
2021/11/27 12:51:13;;;;;;;;;;;;;;;;;;5118571;27;19933;-74
2021/11/27 12:53:38;;;;;;;;;;;;;;;;;;5123495;27;19942;-73
2021/11/27 12:56:04;;;;;;;;;;;;;;;;;;5119411;27;19923;-73
2021/11/27 12:58:32;;;;;;;;;;;;;;;;;;5122791;27;19923;-73
2021/11/27 13:00:57;;;;;;;;;;;;;;;;;;5127827;27;20398;-73
2021/11/27 13:03:23;;;;;;;;;;;;;;;;;;5116438;28;19915;-72
2021/11/27 13:05:49;;;;;;;;;;;;;;;;;;5118169;28;19912;-92
2021/11/27 13:08:24;;;;;;;;;;;;;;;;;;5118035;28;19916;-84
2021/11/27 13:10:52;;;;;;;;;;;;;;;;;;5124664;27;19920;-87
2021/11/27 13:13:22;;;;;;;;;;;;;;;;;;5127330;27;20337;-94
2021/11/27 13:15:49;;;;;;;;;;;;;;;;;;5128641;27;19931;-75
2021/11/27 13:18:15;;;;;;;;;;;;;;;;;;5135066;27;19926;-88
2021/11/27 13:20:52;;;;;;;;;;;;;;;;;;5128315;27;19934;-90
2021/11/27 13:23:19;;;;;;;;;;;;;;;;;;5131146;27;19916;-84
2021/11/27 13:25:46;;;;;;;;;;;;;;;;;;5137608;27;19938;-94
2021/11/27 13:28:38;;;;;;;;;;;;;;;;;;5151421;27;20067;-77
2021/11/27 13:31:05;;;;;;;;;;;;;;;;;;5091498;27;19923;-78
2021/11/27 13:33:50;;;;;;;;;;;;;;;;;;5125768;27;19920;-78
2021/11/27 13:36:36;;;;;;;;;;;;;;;;;;5137749;27;19915;-79
2021/11/27 13:39:10;;;;;;;;;;;;;;;;;;5136868;27;19970;-84
2021/11/27 13:41:36;;;;;;;;;;;;;;;;;;5137793;27;19916;-83
2021/11/27 13:44:01;;;;;;;;;;;;;;;;;;5136557;27;19960;-87
2021/11/27 13:46:27;;;;;;;;;;;;;;;;;;5137775;27;20051;-82
2021/11/27 13:48:59;;;;;;;;;;;;;;;;;;5136956;27;20366;-79
2021/11/27 13:51:25;;;;;;;;;;;;;;;;;;5137180;27;19978;-85
2021/11/27 13:53:51;;;;;;;;;;;;;;;;;;5136374;27;20007;-86
2021/11/27 13:56:16;;;;;;;;;;;;;;;;;;5136885;27;19923;-85
2021/11/27 13:58:44;;;;;;;;;;;;;;;;;;5136122;27;19922;-87
2021/11/27 14:01:12;;;;;;;;;;;;;;;;;;5136696;27;19955;-88
2021/11/27 14:03:37;;;;;;;;;;;;;;;;;;5137570;27;19915;-88
2021/11/27 14:06:11;;;;;;;;;;;;;;;;;;5137325;27;19916;-80
2021/11/27 14:08:36;;;;;;;;;;;;;;;;;;5136132;27;19916;-86
2021/11/27 14:11:04;;;;;;;;;;;;;;;;;;5137146;27;20288;-88
2021/11/27 14:13:31;;;;;;;;;;;;;;;;;;5136813;27;20340;-86
2021/11/27 14:15:56;;;;;;;;;;;;;;;;;;5137235;27;19912;-86
2021/11/27 14:18:25;;;;;;;;;;;;;;;;;;5135527;27;20052;-88
2021/11/27 14:20:50;;;;;;;;;;;;;;;;;;5136772;27;19915;-85
2021/11/27 14:23:17;;;;;;;;;;;;;;;;;;5136581;27;20298;-82
2021/11/27 14:25:58;;;;;;;;;;;;;;;;;;5135587;27;19915;-73
2021/11/27 14:28:23;;;;;;;;;;;;;;;;;;5135309;27;20023;-73
2021/11/27 14:30:49;;;;;;;;;;;;;;;;;;5135441;27;19951;-74
2021/11/27 14:33:24;;;;;;;;;;;;;;;;;;5135027;27;19920;-74
2021/11/27 14:35:53;;;;;;;;;;;;;;;;;;5133729;27;19969;-74
2021/11/27 14:38:34;;;;;;;;;;;;;;;;;;5135120;27;19915;-76
2021/11/27 14:41:00;;;;;;;;;;;;;;;;;;5133433;27;19927;-74
2021/11/27 14:43:25;;;;;;;;;;;;;;;;;;5135258;27;19915;-74
2021/11/27 14:45:51;;;;;;;;;;;;;;;;;;5136209;27;19923;-74
2021/11/27 14:48:32;;;;;;;;;;;;;;;;;;5149453;27;19916;-74
2021/11/27 14:50:57;;;;;;;;;;;;;;;;;;5147151;27;19919;-74
2021/11/27 14:53:33;;;;;;;;;;;;;;;;;;5153778;28;19926;-84
2021/11/27 14:55:58;;;;;;;;;;;;;;;;;;5137384;27;20009;-74
2021/11/27 14:58:24;;;;;;;;;;;;;;;;;;5135671;28;19968;-83
2021/11/27 15:00:49;;;;;;;;;;;;;;;;;;5134132;28;19915;-74
2021/11/27 15:03:14;;;;;;;;;;;;;;;;;;5133683;28;19945;-74
2021/11/27 15:05:40;;;;;;;;;;;;;;;;;;5135061;27;19922;-75
2021/11/27 15:08:05;;;;;;;;;;;;;;;;;;5134946;28;20256;-74
2021/11/27 15:10:31;;;;;;;;;;;;;;;;;;5134817;28;19919;-74
2021/11/27 15:12:56;;;;;;;;;;;;;;;;;;5133610;28;20390;-90
2021/11/27 15:15:23;;;;;;;;;;;;;;;;;;5135575;28;20256;-74
2021/11/27 15:17:51;;;;;;;;;;;;;;;;;;5134988;27;19919;-77
2021/11/27 15:20:18;;;;;;;;;;;;;;;;;;5135423;28;19916;-89
2021/11/27 15:22:44;;;;;;;;;;;;;;;;;;5135321;27;19968;-78
2021/11/27 15:25:10;;;;;;;;;;;;;;;;;;5135055;27;20399;-73
2021/11/27 15:27:36;;;;;;;;;;;;;;;;;;5135308;27;19916;-77
2021/11/27 15:30:02;;;;;;;;;;;;;;;;;;5135639;27;19919;-85
2021/11/27 15:32:28;;;;;;;;;;;;;;;;;;5135269;27;19915;-81
2021/11/27 15:34:54;;;;;;;;;;;;;;;;;;5133737;28;19915;-81
2021/11/27 15:37:19;;;;;;;;;;;;;;;;;;5134800;28;20018;-90
2021/11/27 15:39:45;;;;;;;;;;;;;;;;;;5135718;27;20006;-86
2021/11/27 15:42:10;;;;;;;;;;;;;;;;;;5135995;27;20406;-86
2021/11/27 15:44:36;;;;;;;;;;;;;;;;;;5136595;27;19916;-80
2021/11/27 15:47:03;;;;;;;;;;;;;;;;;;5136261;27;19921;-84
2021/11/27 15:49:29;;;;;;;;;;;;;;;;;;5135198;27;19923;-83
2021/11/27 15:51:55;;;;;;;;;;;;;;;;;;5143630;27;19915;-88
2021/11/27 15:54:20;;;;;;;;;;;;;;;;;;5135607;27;19973;-85
2021/11/27 15:56:46;;;;;;;;;;;;;;;;;;5125357;27;20294;-82
2021/11/27 15:59:16;;;;;;;;;;;;;;;;;;5128669;27;19966;-73
2021/11/27 16:01:46;;;;;;;;;;;;;;;;;;5127203;27;19928;-90
2021/11/27 16:04:12;;;;;;;;;;;;;;;;;;5126626;27;19934;-91
2021/11/27 16:21:52;;;;;;;;;;;;;;;;;;5036142;28;19932;-84
2021/11/27 16:24:18;;;;;;;;;;;;;;;;;;5034357;28;19921;-82
2021/11/27 16:26:43;;;;;;;;;;;;;;;;;;5034722;28;19917;-85
2021/11/27 16:29:09;;;;;;;;;;;;;;;;;;5035478;28;19979;-84
2021/11/27 16:31:34;;;;;;;;;;;;;;;;;;5034379;28;19917;-83
2021/11/27 16:34:00;;;;;;;;;;;;;;;;;;5035569;28;19921;-83
2021/11/27 16:36:25;;;;;;;;;;;;;;;;;;5035531;28;19913;-85
2021/11/27 16:38:51;;;;;;;;;;;;;;;;;;5035683;28;19921;-88
2021/11/27 16:41:16;;;;;;;;;;;;;;;;;;5036816;28;19917;-87
2021/11/27 16:43:42;;;;;;;;;;;;;;;;;;5035708;28;20358;-85
2021/11/27 16:46:09;;;;;;;;;;;;;;;;;;5036211;28;19925;-80
2021/11/27 16:48:35;;;;;;;;;;;;;;;;;;5034368;28;19913;-86
2021/11/27 16:51:00;;;;;;;;;;;;;;;;;;5036390;28;19918;-88
2021/11/27 16:53:26;;;;;;;;;;;;;;;;;;5035591;28;20384;-81
2021/11/27 16:55:51;;;;;;;;;;;;;;;;;;5035070;28;20365;-82
2021/11/27 16:58:17;;;;;;;;;;;;;;;;;;5035036;28;20288;-83
2021/11/27 17:00:43;;;;;;;;;;;;;;;;;;5035113;28;19931;-84
2021/11/27 17:03:08;;;;;;;;;;;;;;;;;;5033706;28;19921;-79
2021/11/27 17:05:35;;;;;;;;;;;;;;;;;;5034836;28;19944;-76